Time;durP1;ratioP1;P1;durP2;ratioP2;P2;SDS_P1;SDS_P2;PMS_P1;PMS_P2;Temp;Humidity;BMP_temperature;BMP_pressure;BME280_temperature;BME280_humidity;BME280_pressure;Samples;Min_cycle;Max_cycle;Signal;HPM_P1;HPM_P2
2022/05/31 00:01:20;;;;;;;;;;;24.40;41.60;;;;;;1421262;81;655;-67
2022/05/31 00:03:22;;;;;;;;;;;24.40;41.60;;;;;;1418964;81;722;-69
2022/05/31 00:05:25;;;;;;;;;;;24.40;41.60;;;;;;1450815;79;1953;-66
2022/05/31 00:07:27;;;;;;;;;;;24.40;41.60;;;;;;1443638;80;736;-67
2022/05/31 00:09:29;;;;;;;;;;;24.40;41.60;;;;;;1418065;81;789;-68
2022/05/31 00:11:31;;;;;;;;;;;24.40;41.60;;;;;;1419472;81;773;-67
2022/05/31 00:13:33;;;;;;;;;;;24.30;41.70;;;;;;1415331;81;553;-69
2022/05/31 00:15:35;;;;;;;;;;;24.40;41.70;;;;;;1443417;80;1165;-70
2022/05/31 00:17:37;;;;;;;;;;;24.30;41.70;;;;;;1439101;80;719;-69
2022/05/31 00:19:38;;;;;;;;;;;24.40;41.70;;;;;;1446817;80;690;-68
2022/05/31 00:21:42;;;;;;;;;;;24.30;41.60;;;;;;1432719;80;724;-69
2022/05/31 00:23:43;;;;;;;;;;;24.40;41.60;;;;;;1441984;80;706;-67
2022/05/31 00:25:45;;;;;;;;;;;24.40;41.70;;;;;;1438662;80;1953;-70
2022/05/31 00:27:47;;;;;;;;;;;24.40;41.80;;;;;;1419431;80;818;-68
2022/05/31 00:29:49;;;;;;;;;;;24.30;41.80;;;;;;1423873;81;775;-67
2022/05/31 00:31:51;;;;;;;;;;;24.40;41.80;;;;;;1415565;81;665;-68
2022/05/31 00:33:53;;;;;;;;;;;24.40;41.80;;;;;;1420279;81;1100;-70
2022/05/31 00:35:55;;;;;;;;;;;24.30;42.00;;;;;;1424073;81;681;-66
2022/05/31 00:37:57;;;;;;;;;;;24.30;42.00;;;;;;1427475;81;732;-68
2022/05/31 00:39:59;;;;;;;;;;;24.30;42.00;;;;;;1416822;81;746;-68
2022/05/31 00:42:05;;;;;;;;;;;24.30;41.90;;;;;;1439131;80;717;-68
2022/05/31 00:44:11;;;;;;;;;;;24.20;41.70;;;;;;1423455;81;1137;-71
2022/05/31 00:46:12;;;;;;;;;;;24.30;41.90;;;;;;1415960;81;1960;-68
2022/05/31 00:48:16;;;;;;;;;;;24.30;42.00;;;;;;1441268;80;701;-69
2022/05/31 00:50:25;;;;;;;;;;;24.20;41.80;;;;;;1448398;79;1745;-70
2022/05/31 00:52:32;;;;;;;;;;;24.30;42.10;;;;;;1445141;80;1291;-68
2022/05/31 00:54:34;;;;;;;;;;;24.20;41.90;;;;;;1420457;81;1155;-69
2022/05/31 00:56:36;;;;;;;;;;;24.30;42.00;;;;;;1417367;81;846;-68
2022/05/31 00:58:39;;;;;;;;;;;24.20;41.80;;;;;;1427731;81;769;-68
2022/05/31 01:00:41;;;;;;;;;;;24.30;42.00;;;;;;1451750;79;644;-67
2022/05/31 01:02:43;;;;;;;;;;;24.30;42.10;;;;;;1427982;81;631;-69
2022/05/31 01:04:49;;;;;;;;;;;24.20;41.90;;;;;;1425834;81;1125;-69
2022/05/31 01:06:51;;;;;;;;;;;24.20;42.00;;;;;;1423335;81;1936;-71
2022/05/31 01:08:54;;;;;;;;;;;24.20;41.90;;;;;;1424331;81;695;-71
2022/05/31 01:10:56;;;;;;;;;;;24.30;42.20;;;;;;1443094;80;678;-70
2022/05/31 01:12:58;;;;;;;;;;;24.30;42.00;;;;;;1461333;80;794;-70
2022/05/31 01:15:00;;;;;;;;;;;24.30;42.10;;;;;;1419892;81;1125;-71
2022/05/31 01:17:03;;;;;;;;;;;24.30;42.10;;;;;;1484753;78;741;-71
2022/05/31 01:19:55;;;;;;;;;;;24.30;42.00;;;;;;1478790;78;685;-69
2022/05/31 01:21:09;;;;;;;;;;;24.30;42.00;;;;;;1482693;78;1286;-72
2022/05/31 01:23:12;;;;;;;;;;;24.30;42.00;;;;;;1472628;78;742;-71
2022/05/31 01:25:16;;;;;;;;;;;24.30;41.90;;;;;;1483431;78;1940;-71
2022/05/31 01:27:22;;;;;;;;;;;24.30;41.90;;;;;;1497289;78;1825;-70
2022/05/31 01:29:28;;;;;;;;;;;24.30;41.80;;;;;;1496491;78;1439;-69
2022/05/31 01:31:38;;;;;;;;;;;24.20;41.70;;;;;;1492537;78;674;-70
2022/05/31 01:33:47;;;;;;;;;;;24.30;41.90;;;;;;1484386;78;798;-69
2022/05/31 01:35:49;;;;;;;;;;;24.30;41.90;;;;;;1480569;78;1036;-71
2022/05/31 01:38:01;;;;;;;;;;;24.20;41.70;;;;;;1495009;78;670;-70
2022/05/31 01:40:04;;;;;;;;;;;24.30;41.90;;;;;;1506829;78;1832;-71
2022/05/31 01:42:08;;;;;;;;;;;24.30;41.90;;;;;;1494408;78;1467;-70
2022/05/31 01:44:11;;;;;;;;;;;24.30;41.90;;;;;;1487256;78;1191;-70
2022/05/31 01:46:15;;;;;;;;;;;24.20;41.80;;;;;;1473695;78;1912;-70
2022/05/31 01:48:17;;;;;;;;;;;24.20;41.70;;;;;;1488078;78;740;-69
2022/05/31 01:50:19;;;;;;;;;;;24.20;41.70;;;;;;1493363;78;631;-69
2022/05/31 01:52:21;;;;;;;;;;;24.20;41.90;;;;;;1501356;78;727;-72
2022/05/31 01:54:23;;;;;;;;;;;24.20;42.00;;;;;;1489961;78;1164;-69
2022/05/31 01:56:25;;;;;;;;;;;24.30;42.00;;;;;;1486489;78;787;-70
2022/05/31 01:58:28;;;;;;;;;;;24.30;42.00;;;;;;1500747;78;579;-70
2022/05/31 02:00:30;;;;;;;;;;;24.30;41.90;;;;;;1496533;78;697;-70
2022/05/31 02:02:32;;;;;;;;;;;24.20;42.00;;;;;;1483609;78;681;-70
2022/05/31 02:04:34;;;;;;;;;;;24.20;42.00;;;;;;1483669;78;1179;-68
2022/05/31 02:06:37;;;;;;;;;;;24.20;41.80;;;;;;1494386;78;1970;-70
2022/05/31 02:08:40;;;;;;;;;;;24.30;41.90;;;;;;1498874;78;692;-70
2022/05/31 02:10:42;;;;;;;;;;;24.30;42.10;;;;;;1481651;78;740;-70
2022/05/31 02:12:44;;;;;;;;;;;24.40;42.00;;;;;;1485563;78;719;-70
2022/05/31 02:14:46;;;;;;;;;;;24.30;42.10;;;;;;1481165;78;1144;-70
2022/05/31 02:16:47;;;;;;;;;;;24.30;42.10;;;;;;1490815;78;692;-68
2022/05/31 02:21:09;;;;;;;;;;;24.30;41.90;;;;;;1485918;78;1634;-69
2022/05/31 02:23:11;;;;;;;;;;;24.30;42.00;;;;;;1483528;78;701;-70
2022/05/31 02:25:13;;;;;;;;;;;24.20;41.80;;;;;;1489260;78;1141;-69
2022/05/31 02:27:15;;;;;;;;;;;24.20;41.80;;;;;;1491841;78;1948;-71
2022/05/31 02:29:18;;;;;;;;;;;24.30;41.80;;;;;;1492303;78;871;-70
2022/05/31 02:31:20;;;;;;;;;;;24.30;41.80;;;;;;1501805;78;830;-70
2022/05/31 02:33:22;;;;;;;;;;;24.20;41.80;;;;;;1489392;78;646;-71
2022/05/31 02:35:24;;;;;;;;;;;24.20;41.80;;;;;;1491838;78;1159;-72
2022/05/31 02:37:26;;;;;;;;;;;24.30;41.90;;;;;;1483362;78;1572;-72
2022/05/31 02:39:28;;;;;;;;;;;24.30;41.80;;;;;;1477518;78;674;-70
2022/05/31 02:41:30;;;;;;;;;;;24.30;41.90;;;;;;1481524;78;717;-71
2022/05/31 02:43:32;;;;;;;;;;;24.30;41.90;;;;;;1499495;78;676;-73
2022/05/31 02:45:34;;;;;;;;;;;24.30;41.90;;;;;;1478555;78;1523;-71
2022/05/31 02:47:39;;;;;;;;;;;24.30;42.00;;;;;;1497559;78;1929;-70
2022/05/31 02:49:40;;;;;;;;;;;24.30;41.90;;;;;;1475344;78;1062;-68
2022/05/31 02:51:42;;;;;;;;;;;24.20;41.80;;;;;;1486407;78;777;-69
2022/05/31 02:53:44;;;;;;;;;;;24.20;41.80;;;;;;1490384;78;663;-70
2022/05/31 02:55:46;;;;;;;;;;;24.20;41.90;;;;;;1498080;77;1187;-68
2022/05/31 02:57:48;;;;;;;;;;;24.20;41.90;;;;;;1502640;78;798;-70
2022/05/31 02:59:50;;;;;;;;;;;24.20;41.90;;;;;;1491276;78;624;-70
2022/05/31 03:01:52;;;;;;;;;;;24.20;41.80;;;;;;1491964;78;668;-70
2022/05/31 03:03:53;;;;;;;;;;;24.20;42.00;;;;;;1487982;78;668;-68
2022/05/31 03:05:56;;;;;;;;;;;24.20;41.90;;;;;;1491214;78;1964;-70
2022/05/31 03:07:58;;;;;;;;;;;24.20;41.80;;;;;;1497771;78;693;-69
2022/05/31 03:10:00;;;;;;;;;;;24.20;41.80;;;;;;1483106;78;729;-68
2022/05/31 03:12:06;;;;;;;;;;;24.20;41.80;;;;;;1479355;78;773;-67
2022/05/31 03:14:21;;;;;;;;;;;24.20;41.80;;;;;;1477968;78;1180;-68
2022/05/31 03:16:23;;;;;;;;;;;24.20;41.80;;;;;;1480662;78;716;-69
2022/05/31 03:18:26;;;;;;;;;;;24.20;41.80;;;;;;1485862;78;626;-68
2022/05/31 03:20:31;;;;;;;;;;;24.20;41.80;;;;;;1476904;78;621;-68
2022/05/31 03:22:34;;;;;;;;;;;24.20;41.80;;;;;;1480820;78;1684;-69
2022/05/31 03:24:37;;;;;;;;;;;24.20;41.80;;;;;;1489659;78;1120;-70
2022/05/31 03:26:40;;;;;;;;;;;24.20;41.70;;;;;;1506232;78;1945;-68
2022/05/31 03:28:42;;;;;;;;;;;24.20;41.70;;;;;;1479748;78;667;-69
2022/05/31 03:30:43;;;;;;;;;;;24.20;41.60;;;;;;1484575;78;696;-68
2022/05/31 03:32:45;;;;;;;;;;;24.20;41.60;;;;;;1486487;78;735;-69
2022/05/31 03:34:47;;;;;;;;;;;24.20;41.60;;;;;;1473708;78;1459;-70
2022/05/31 03:36:49;;;;;;;;;;;24.20;41.60;;;;;;1497432;78;730;-69
2022/05/31 03:38:51;;;;;;;;;;;24.20;41.70;;;;;;1498307;78;563;-69
2022/05/31 03:41:03;;;;;;;;;;;24.20;41.60;;;;;;1492632;78;793;-73
2022/05/31 03:43:05;;;;;;;;;;;24.20;41.60;;;;;;1485938;78;989;-74
2022/05/31 03:45:07;;;;;;;;;;;24.00;41.50;;;;;;1499646;78;1154;-73
2022/05/31 03:47:09;;;;;;;;;;;24.20;41.60;;;;;;1485302;78;1942;-72
2022/05/31 03:49:11;;;;;;;;;;;24.10;41.50;;;;;;1493077;78;669;-67
2022/05/31 03:51:13;;;;;;;;;;;24.10;41.60;;;;;;1493671;78;732;-70
2022/05/31 03:53:15;;;;;;;;;;;24.20;41.60;;;;;;1476618;78;652;-71
2022/05/31 03:55:17;;;;;;;;;;;24.10;41.60;;;;;;1482856;78;1284;-68
2022/05/31 03:57:19;;;;;;;;;;;24.10;41.60;;;;;;1492389;78;653;-70
2022/05/31 03:59:21;;;;;;;;;;;24.10;41.60;;;;;;1503368;78;729;-68
2022/05/31 04:01:23;;;;;;;;;;;24.10;41.60;;;;;;1492447;78;667;-69
2022/05/31 04:03:25;;;;;;;;;;;24.10;41.60;;;;;;1499436;78;681;-71
2022/05/31 04:05:27;;;;;;;;;;;24.10;41.60;;;;;;1492727;78;1144;-70
2022/05/31 04:07:29;;;;;;;;;;;24.10;41.60;;;;;;1494073;77;1941;-69
2022/05/31 04:09:30;;;;;;;;;;;24.10;41.70;;;;;;1501389;78;748;-71
2022/05/31 04:11:32;;;;;;;;;;;24.10;41.60;;;;;;1486978;78;678;-69
2022/05/31 04:13:34;;;;;;;;;;;24.10;41.70;;;;;;1499760;78;666;-70
2022/05/31 04:15:36;;;;;;;;;;;24.10;41.60;;;;;;1503927;78;1156;-67
2022/05/31 04:17:38;;;;;;;;;;;24.10;41.70;;;;;;1496252;78;713;-64
2022/05/31 04:19:40;;;;;;;;;;;24.10;41.60;;;;;;1485500;78;742;-68
2022/05/31 04:21:42;;;;;;;;;;;24.10;41.60;;;;;;1475139;78;666;-64
2022/05/31 04:24:00;;;;;;;;;;;24.10;41.60;;;;;;1495117;78;665;-66
2022/05/31 04:26:02;;;;;;;;;;;24.00;41.50;;;;;;1500338;78;663;-69
2022/05/31 04:28:04;;;;;;;;;;;24.10;41.60;;;;;;1493835;78;1942;-70
2022/05/31 04:30:06;;;;;;;;;;;24.00;41.50;;;;;;1482884;78;1241;-70
2022/05/31 04:32:08;;;;;;;;;;;24.00;41.50;;;;;;1495342;78;707;-71
2022/05/31 04:34:10;;;;;;;;;;;24.10;41.60;;;;;;1508094;77;1146;-69
2022/05/31 04:36:13;;;;;;;;;;;24.10;41.60;;;;;;1480710;78;625;-71
2022/05/31 04:38:15;;;;;;;;;;;24.10;41.60;;;;;;1483751;78;764;-69
2022/05/31 04:40:17;;;;;;;;;;;24.10;41.50;;;;;;1496168;78;797;-72
2022/05/31 04:42:18;;;;;;;;;;;24.10;41.60;;;;;;1482833;78;668;-67
2022/05/31 04:44:20;;;;;;;;;;;24.10;41.60;;;;;;1490549;78;1159;-69
2022/05/31 04:46:23;;;;;;;;;;;24.10;41.50;;;;;;1488113;78;1954;-65
2022/05/31 04:48:25;;;;;;;;;;;24.10;41.60;;;;;;1485049;78;784;-67
2022/05/31 04:50:27;;;;;;;;;;;24.10;41.60;;;;;;1486286;78;649;-69
2022/05/31 04:52:29;;;;;;;;;;;24.10;41.60;;;;;;1472987;78;702;-70
2022/05/31 04:54:31;;;;;;;;;;;24.10;41.60;;;;;;1474972;78;1186;-72
2022/05/31 04:56:33;;;;;;;;;;;24.10;41.60;;;;;;1484109;78;738;-71
2022/05/31 04:58:35;;;;;;;;;;;24.10;41.60;;;;;;1478374;78;803;-73
2022/05/31 05:00:37;;;;;;;;;;;24.10;41.60;;;;;;1480495;78;642;-71
2022/05/31 05:02:39;;;;;;;;;;;24.10;41.60;;;;;;1479999;78;716;-71
2022/05/31 05:04:41;;;;;;;;;;;24.10;41.60;;;;;;1481483;78;1170;-72
2022/05/31 05:06:42;;;;;;;;;;;24.10;41.60;;;;;;1485614;78;1920;-69
2022/05/31 05:08:44;;;;;;;;;;;24.10;41.50;;;;;;1494680;78;952;-71
2022/05/31 05:10:46;;;;;;;;;;;24.10;41.80;;;;;;1498231;78;665;-71
2022/05/31 05:12:48;;;;;;;;;;;24.20;41.60;;;;;;1487466;78;714;-70
2022/05/31 05:14:50;;;;;;;;;;;24.30;41.60;;;;;;1507984;78;1125;-72
2022/05/31 05:16:53;;;;;;;;;;;24.30;41.50;;;;;;1487207;78;568;-72
2022/05/31 05:18:55;;;;;;;;;;;24.30;41.50;;;;;;1494671;78;739;-70
2022/05/31 05:20:57;;;;;;;;;;;24.20;41.40;;;;;;1495861;78;671;-71
2022/05/31 05:22:59;;;;;;;;;;;24.30;41.50;;;;;;1500524;78;675;-69
2022/05/31 05:25:00;;;;;;;;;;;24.20;41.40;;;;;;1505837;78;1104;-70
2022/05/31 05:27:02;;;;;;;;;;;24.20;41.40;;;;;;1494493;78;1933;-70
2022/05/31 05:31:26;;;;;;;;;;;24.10;41.40;;;;;;1504130;78;1873;-71
2022/05/31 05:33:28;;;;;;;;;;;24.10;41.40;;;;;;1493360;78;578;-71
2022/05/31 05:35:30;;;;;;;;;;;24.10;41.50;;;;;;1500145;77;1143;-72
2022/05/31 05:37:32;;;;;;;;;;;24.10;41.50;;;;;;1495543;78;655;-69
2022/05/31 05:39:34;;;;;;;;;;;24.10;41.50;;;;;;1485296;78;972;-71
2022/05/31 05:41:36;;;;;;;;;;;24.20;41.50;;;;;;1495522;78;744;-70
2022/05/31 05:43:40;;;;;;;;;;;24.30;41.40;;;;;;1499160;78;672;-69
2022/05/31 05:45:41;;;;;;;;;;;24.20;41.30;;;;;;1503135;77;2072;-69
2022/05/31 05:47:43;;;;;;;;;;;24.30;41.50;;;;;;1491338;78;1950;-69
2022/05/31 05:49:45;;;;;;;;;;;24.20;41.30;;;;;;1490142;78;627;-72
2022/05/31 05:51:48;;;;;;;;;;;24.10;41.30;;;;;;1491360;78;769;-69
2022/05/31 05:53:50;;;;;;;;;;;24.10;41.30;;;;;;1495244;78;723;-70
2022/05/31 05:55:52;;;;;;;;;;;24.10;41.10;;;;;;1488814;78;1168;-69
2022/05/31 05:57:54;;;;;;;;;;;24.00;41.00;;;;;;1494609;78;762;-72
2022/05/31 05:59:56;;;;;;;;;;;24.00;41.00;;;;;;1505219;78;779;-70
2022/05/31 06:01:59;;;;;;;;;;;24.00;41.00;;;;;;1492504;78;579;-73
2022/05/31 06:04:09;;;;;;;;;;;24.00;41.00;;;;;;1485610;78;1179;-72
2022/05/31 06:06:11;;;;;;;;;;;24.00;41.10;;;;;;1491330;78;842;-71
2022/05/31 06:08:14;;;;;;;;;;;24.00;41.10;;;;;;1470176;78;1940;-70
2022/05/31 06:10:21;;;;;;;;;;;23.90;41.10;;;;;;1487174;78;575;-70
2022/05/31 06:12:23;;;;;;;;;;;23.90;41.10;;;;;;1476938;78;756;-73
2022/05/31 06:14:30;;;;;;;;;;;23.90;41.10;;;;;;1485148;78;1174;-68
2022/05/31 06:16:32;;;;;;;;;;;23.90;41.10;;;;;;1480354;78;854;-70
2022/05/31 06:18:36;;;;;;;;;;;23.90;41.10;;;;;;1482894;78;592;-68
2022/05/31 06:20:38;;;;;;;;;;;23.90;41.00;;;;;;1504433;78;637;-70
2022/05/31 06:22:40;;;;;;;;;;;24.00;40.30;;;;;;1482549;78;1500;-70
2022/05/31 06:24:42;;;;;;;;;;;24.00;40.30;;;;;;1489003;78;1172;-70
2022/05/31 06:26:44;;;;;;;;;;;24.00;40.20;;;;;;1481948;78;742;-68
2022/05/31 06:28:46;;;;;;;;;;;24.00;40.00;;;;;;1489669;78;1946;-71
2022/05/31 06:30:48;;;;;;;;;;;24.10;39.90;;;;;;1494404;78;682;-70
2022/05/31 06:32:49;;;;;;;;;;;24.10;39.90;;;;;;1484525;78;695;-69
2022/05/31 06:34:51;;;;;;;;;;;24.20;39.70;;;;;;1489163;78;1157;-70
2022/05/31 06:37:07;;;;;;;;;;;24.20;39.50;;;;;;1487088;78;708;-71
2022/05/31 06:39:09;;;;;;;;;;;24.20;39.60;;;;;;1506116;78;683;-71
2022/05/31 06:41:12;;;;;;;;;;;24.20;39.70;;;;;;1504499;78;661;-71
2022/05/31 06:43:14;;;;;;;;;;;24.30;39.80;;;;;;1490287;78;672;-70
2022/05/31 06:45:16;;;;;;;;;;;24.30;39.80;;;;;;1501692;78;1151;-70
2022/05/31 06:47:18;;;;;;;;;;;24.50;39.70;;;;;;1481378;78;1932;-71
2022/05/31 06:49:19;;;;;;;;;;;24.50;39.70;;;;;;1490245;78;659;-71
2022/05/31 06:56:48;;;;;;;;;;;24.70;39.40;;;;;;1492525;78;764;-71
2022/05/31 06:58:19;;;;;;;;;;;24.70;39.30;;;;;;1482168;78;905;-69
2022/05/31 07:00:21;;;;;;;;;;;24.80;39.10;;;;;;1481567;78;801;-70
2022/05/31 07:02:23;;;;;;;;;;;24.80;39.10;;;;;;1500988;78;936;-70
2022/05/31 07:04:25;;;;;;;;;;;25.00;39.20;;;;;;1499701;78;1168;-70
2022/05/31 07:06:28;;;;;;;;;;;25.00;39.40;;;;;;1495952;78;721;-70
2022/05/31 07:08:30;;;;;;;;;;;25.00;39.50;;;;;;1497341;78;1936;-68
2022/05/31 07:10:32;;;;;;;;;;;25.10;39.50;;;;;;1494138;78;685;-70
2022/05/31 07:12:34;;;;;;;;;;;25.10;39.60;;;;;;1490606;78;678;-69
2022/05/31 07:14:37;;;;;;;;;;;25.10;39.90;;;;;;1493458;78;1158;-69
2022/05/31 07:16:39;;;;;;;;;;;25.20;39.60;;;;;;1501707;78;655;-68
2022/05/31 07:18:42;;;;;;;;;;;25.20;39.60;;;;;;1481354;78;1505;-68
2022/05/31 07:20:44;;;;;;;;;;;25.30;39.40;;;;;;1479574;78;688;-69
2022/05/31 07:22:46;;;;;;;;;;;25.40;39.50;;;;;;1489518;78;721;-73
2022/05/31 07:24:48;;;;;;;;;;;25.30;39.40;;;;;;1493773;78;1120;-71
2022/05/31 07:26:50;;;;;;;;;;;25.30;39.30;;;;;;1488460;78;710;-71
2022/05/31 07:28:52;;;;;;;;;;;25.30;39.30;;;;;;1485477;78;1930;-69
2022/05/31 07:30:54;;;;;;;;;;;25.40;39.20;;;;;;1485572;78;638;-72
2022/05/31 07:32:56;;;;;;;;;;;25.40;39.20;;;;;;1498904;78;680;-70
2022/05/31 07:34:58;;;;;;;;;;;25.50;39.10;;;;;;1496364;77;1154;-70
2022/05/31 07:37:00;;;;;;;;;;;25.40;38.90;;;;;;1497914;78;754;-70
2022/05/31 07:39:02;;;;;;;;;;;25.40;39.00;;;;;;1501785;78;647;-71
2022/05/31 07:41:04;;;;;;;;;;;25.40;39.00;;;;;;1502670;78;618;-70
2022/05/31 07:43:06;;;;;;;;;;;25.40;39.00;;;;;;1480002;78;751;-70
2022/05/31 07:45:08;;;;;;;;;;;25.50;38.90;;;;;;1478129;78;1139;-69
2022/05/31 07:47:10;;;;;;;;;;;25.50;38.90;;;;;;1500637;78;650;-68
2022/05/31 07:49:12;;;;;;;;;;;25.50;38.60;;;;;;1493630;78;1941;-69
2022/05/31 07:51:13;;;;;;;;;;;25.50;38.60;;;;;;1486189;78;590;-68
2022/05/31 07:53:15;;;;;;;;;;;25.50;38.60;;;;;;1490908;78;697;-70
2022/05/31 07:55:17;;;;;;;;;;;25.50;38.50;;;;;;1482913;78;1194;-70
2022/05/31 07:59:39;;;;;;;;;;;25.40;37.40;;;;;;1495141;78;754;-71
2022/05/31 08:01:41;;;;;;;;;;;25.40;37.80;;;;;;1488684;78;767;-69
2022/05/31 08:03:43;;;;;;;;;;;25.40;37.80;;;;;;1486225;78;652;-69
2022/05/31 08:05:45;;;;;;;;;;;25.30;37.60;;;;;;1482439;78;1117;-71
2022/05/31 08:07:47;;;;;;;;;;;25.40;37.60;;;;;;1486238;78;1997;-70
2022/05/31 08:09:48;;;;;;;;;;;25.30;37.10;;;;;;1469655;78;672;-70
2022/05/31 08:11:50;;;;;;;;;;;25.30;37.30;;;;;;1483665;78;653;-70
2022/05/31 08:13:53;;;;;;;;;;;25.30;36.20;;;;;;1492026;78;656;-70
2022/05/31 08:15:57;;;;;;;;;;;25.30;36.30;;;;;;1492405;78;1503;-70
2022/05/31 08:17:58;;;;;;;;;;;25.20;36.90;;;;;;1493469;78;681;-72
2022/05/31 08:20:00;;;;;;;;;;;25.10;37.10;;;;;;1495773;78;680;-70
2022/05/31 08:22:02;;;;;;;;;;;25.20;37.10;;;;;;1492831;78;668;-71
2022/05/31 08:24:05;;;;;;;;;;;25.20;37.20;;;;;;1487089;77;1151;-70
2022/05/31 08:26:06;;;;;;;;;;;25.30;37.40;;;;;;1505451;78;727;-70
2022/05/31 08:28:08;;;;;;;;;;;25.30;37.50;;;;;;1485677;78;1924;-69
2022/05/31 08:30:11;;;;;;;;;;;25.30;37.60;;;;;;1482067;78;669;-70
2022/05/31 08:32:13;;;;;;;;;;;25.30;37.60;;;;;;1485981;78;689;-69
2022/05/31 08:34:15;;;;;;;;;;;25.40;37.40;;;;;;1485605;78;1161;-69
2022/05/31 08:36:36;;;;;;;;;;;25.40;37.20;;;;;;1482728;78;688;-69
2022/05/31 08:38:39;;;;;;;;;;;25.40;37.40;;;;;;1534314;76;614;-56
2022/05/31 08:40:42;;;;;;;;;;;25.40;37.30;;;;;;1526784;76;1203;-55
2022/05/31 08:42:54;;;;;;;;;;;25.40;37.30;;;;;;1514999;77;680;-56
2022/05/31 08:45:00;;;;;;;;;;;25.40;37.10;;;;;;1513785;77;2386;-56
2022/05/31 08:47:15;;;;;;;;;;;25.30;37.30;;;;;;1515336;77;730;-56
2022/05/31 08:52:04;;;;;;;;;;;25.30;37.40;;;;;;1455514;80;1691;-57
2022/05/31 08:58:56;;;;;;;;;;;25.00;37.20;;;;;;1520049;77;1627;-57
2022/05/31 09:00:58;;;;;;;;;;;25.20;37.30;;;;;;1505847;77;1205;-57
2022/05/31 09:03:01;;;;;;;;;;;25.30;37.40;;;;;;1523161;77;686;-57
2022/05/31 09:05:05;;;;;;;;;;;25.20;37.40;;;;;;1514204;77;684;-58
2022/05/31 09:07:26;;;;;;;;;;;25.20;37.40;;;;;;1524171;77;688;-57
2022/05/31 09:09:30;;;;;;;;;;;25.10;37.50;;;;;;1488688;79;1918;-57
2022/05/31 09:11:33;;;;;;;;;;;25.10;37.50;;;;;;1504842;77;1430;-56
2022/05/31 09:13:37;;;;;;;;;;;25.20;37.60;;;;;;1500652;77;1831;-55
2022/05/31 09:15:40;;;;;;;;;;;25.20;37.60;;;;;;1510764;77;684;-54
2022/05/31 09:17:49;;;;;;;;;;;25.20;37.60;;;;;;1466367;79;720;-55
2022/05/31 09:19:56;;;;;;;;;;;25.10;37.60;;;;;;1459992;79;694;-52
2022/05/31 09:21:57;;;;;;;;;;;25.10;37.60;;;;;;1460517;79;1088;-54
2022/05/31 09:23:59;;;;;;;;;;;25.20;37.60;;;;;;1463336;79;778;-54
2022/05/31 09:26:09;;;;;;;;;;;25.20;37.60;;;;;;1439302;81;715;-52
2022/05/31 09:28:13;;;;;;;;;;;25.10;37.40;;;;;;1449099;81;1925;-54
2022/05/31 09:30:19;;;;;;;;;;;25.10;37.30;;;;;;1452048;81;1800;-54
2022/05/31 09:32:28;;;;;;;;;;;25.20;37.30;;;;;;1455461;79;697;-54
2022/05/31 09:34:35;;;;;;;;;;;25.10;37.50;;;;;;1441154;81;1362;-55
2022/05/31 09:36:39;;;;;;;;;;;25.10;37.60;;;;;;1449795;81;662;-53
2022/05/31 09:38:48;;;;;;;;;;;25.10;37.60;;;;;;1453856;79;1630;-52
2022/05/31 09:40:50;;;;;;;;;;;25.10;37.70;;;;;;1447790;81;1998;-54
2022/05/31 09:42:54;;;;;;;;;;;25.10;37.30;;;;;;1455244;80;700;-55
2022/05/31 09:45:03;;;;;;;;;;;25.10;37.50;;;;;;1453749;80;1532;-53
2022/05/31 09:47:10;;;;;;;;;;;25.00;37.60;;;;;;1447662;81;1312;-55
2022/05/31 09:49:18;;;;;;;;;;;25.00;37.60;;;;;;1449757;81;1908;-56
2022/05/31 09:51:24;;;;;;;;;;;25.00;37.50;;;;;;1455114;81;1169;-56
2022/05/31 09:58:15;;;;;;;;;;;25.10;37.50;;;;;;1462147;81;1644;-56
2022/05/31 10:00:15;;;;;;;;;;;25.00;37.30;;;;;;1448067;81;1191;-55
2022/05/31 10:02:21;;;;;;;;;;;25.00;37.30;;;;;;1455380;81;746;-54
2022/05/31 10:04:24;;;;;;;;;;;25.00;37.40;;;;;;1458016;81;701;-54
2022/05/31 10:06:27;;;;;;;;;;;25.00;37.40;;;;;;1449186;81;678;-56
2022/05/31 10:08:32;;;;;;;;;;;25.00;37.50;;;;;;1458065;80;1915;-54
2022/05/31 10:10:35;;;;;;;;;;;25.00;37.60;;;;;;1452249;81;1142;-55
2022/05/31 10:12:39;;;;;;;;;;;25.00;37.50;;;;;;1463182;81;668;-55
2022/05/31 10:14:45;;;;;;;;;;;24.90;37.60;;;;;;1459718;80;648;-54
2022/05/31 10:16:49;;;;;;;;;;;25.00;37.50;;;;;;1452334;80;676;-56
2022/05/31 10:18:55;;;;;;;;;;;24.90;37.60;;;;;;1459213;81;1439;-55
2022/05/31 10:21:02;;;;;;;;;;;24.90;37.60;;;;;;1447781;81;1131;-53
2022/05/31 10:23:04;;;;;;;;;;;24.80;37.60;;;;;;1451846;81;682;-54
2022/05/31 10:25:19;;;;;;;;;;;24.90;37.70;;;;;;1456267;81;701;-54
2022/05/31 10:27:22;;;;;;;;;;;24.90;37.70;;;;;;1458751;81;767;-54
2022/05/31 10:29:28;;;;;;;;;;;24.90;37.70;;;;;;1461355;81;1939;-55
2022/05/31 10:31:36;;;;;;;;;;;24.80;37.60;;;;;;1446006;81;1156;-55
2022/05/31 10:33:38;;;;;;;;;;;24.90;37.70;;;;;;1453525;81;672;-55
2022/05/31 10:35:43;;;;;;;;;;;24.90;37.60;;;;;;1455027;81;654;-54
2022/05/31 10:37:50;;;;;;;;;;;24.80;37.60;;;;;;1448210;81;783;-56
2022/05/31 10:40:02;;;;;;;;;;;24.80;37.50;;;;;;1452128;81;1018;-55
2022/05/31 10:42:06;;;;;;;;;;;24.80;37.60;;;;;;1455522;81;2281;-55
2022/05/31 10:44:12;;;;;;;;;;;24.80;37.70;;;;;;1456753;81;657;-52
2022/05/31 10:46:32;;;;;;;;;;;24.80;37.70;;;;;;1446968;81;1604;-53
2022/05/31 10:48:35;;;;;;;;;;;24.80;37.70;;;;;;1444108;81;1921;-56
2022/05/31 10:50:45;;;;;;;;;;;24.80;37.70;;;;;;1450798;81;1153;-54
2022/05/31 10:52:48;;;;;;;;;;;24.80;37.80;;;;;;1444681;81;972;-56
2022/05/31 10:54:58;;;;;;;;;;;24.70;37.80;;;;;;1462662;80;673;-56
2022/05/31 10:57:07;;;;;;;;;;;24.70;37.80;;;;;;1445513;80;789;-54
2022/05/31 10:59:13;;;;;;;;;;;24.70;37.90;;;;;;1458745;81;1829;-54
2022/05/31 11:01:18;;;;;;;;;;;24.60;37.80;;;;;;1453094;81;1175;-54
2022/05/31 11:03:23;;;;;;;;;;;24.70;37.90;;;;;;1450216;81;696;-54
2022/05/31 11:05:29;;;;;;;;;;;24.70;37.90;;;;;;1451703;81;1591;-53
2022/05/31 11:07:33;;;;;;;;;;;24.70;37.80;;;;;;1451383;81;1595;-55
2022/05/31 11:12:16;;;;;;;;;;;24.70;37.90;;;;;;1452054;81;1680;-57
2022/05/31 11:14:22;;;;;;;;;;;24.70;38.00;;;;;;1457184;81;1733;-57
2022/05/31 11:16:37;;;;;;;;;;;24.70;38.00;;;;;;1464415;80;760;-55
2022/05/31 11:18:44;;;;;;;;;;;24.60;37.80;;;;;;1464485;81;1492;-54
2022/05/31 11:20:50;;;;;;;;;;;24.70;38.00;;;;;;1454846;81;2217;-53
2022/05/31 11:23:09;;;;;;;;;;;24.60;37.90;;;;;;1454471;81;1956;-57
2022/05/31 11:25:25;;;;;;;;;;;24.60;37.90;;;;;;1456805;81;1525;-56
2022/05/31 11:27:34;;;;;;;;;;;24.60;38.00;;;;;;1459562;81;623;-57
2022/05/31 11:29:45;;;;;;;;;;;24.60;37.90;;;;;;1453136;81;1945;-56
2022/05/31 11:31:51;;;;;;;;;;;24.60;38.00;;;;;;1455510;81;1345;-57
2022/05/31 11:33:57;;;;;;;;;;;24.60;38.10;;;;;;1455389;81;988;-58
2022/05/31 11:36:17;;;;;;;;;;;24.50;38.10;;;;;;1452900;81;1497;-56
2022/05/31 11:38:37;;;;;;;;;;;24.50;38.10;;;;;;1449282;81;881;-55
2022/05/31 11:40:43;;;;;;;;;;;24.50;38.10;;;;;;1456181;81;1157;-55
2022/05/31 11:43:02;;;;;;;;;;;24.50;38.10;;;;;;1464859;81;1560;-57
2022/05/31 11:45:05;;;;;;;;;;;24.50;38.20;;;;;;1447135;81;694;-56
2022/05/31 11:47:09;;;;;;;;;;;24.50;38.20;;;;;;1450477;81;1463;-56
2022/05/31 11:49:15;;;;;;;;;;;24.50;38.20;;;;;;1459200;81;1922;-58
2022/05/31 11:51:37;;;;;;;;;;;24.50;38.20;;;;;;1451009;81;1876;-59
2022/05/31 11:53:50;;;;;;;;;;;24.50;38.20;;;;;;1456960;81;674;-57
2022/05/31 11:55:54;;;;;;;;;;;24.50;38.20;;;;;;1450198;81;682;-56
2022/05/31 11:58:00;;;;;;;;;;;24.50;38.20;;;;;;1456343;81;609;-55
2022/05/31 12:00:04;;;;;;;;;;;24.50;38.30;;;;;;1451093;80;1591;-57
2022/05/31 12:02:07;;;;;;;;;;;24.50;38.20;;;;;;1453867;81;1198;-56
2022/05/31 12:04:14;;;;;;;;;;;24.50;37.60;;;;;;1453831;81;1889;-57
2022/05/31 12:06:20;;;;;;;;;;;24.50;37.90;;;;;;1454632;81;672;-58
2022/05/31 12:08:24;;;;;;;;;;;24.60;37.60;;;;;;1459134;81;1703;-58
2022/05/31 12:10:30;;;;;;;;;;;24.60;37.70;;;;;;1443997;80;1907;-56
2022/05/31 12:12:34;;;;;;;;;;;24.60;37.60;;;;;;1448237;81;663;-56
2022/05/31 12:14:39;;;;;;;;;;;24.50;37.60;;;;;;1456792;81;1482;-56
2022/05/31 12:16:41;;;;;;;;;;;24.60;37.40;;;;;;1455879;80;751;-55
2022/05/31 12:18:54;;;;;;;;;;;24.50;37.30;;;;;;1449933;81;703;-56
2022/05/31 12:20:58;;;;;;;;;;;24.60;37.30;;;;;;1447358;81;1806;-56
2022/05/31 12:23:16;;;;;;;;;;;24.50;37.20;;;;;;1461154;80;1784;-59
2022/05/31 12:25:19;;;;;;;;;;;24.60;37.20;;;;;;1447164;81;701;-56
2022/05/31 12:27:23;;;;;;;;;;;24.60;37.20;;;;;;1452819;81;1838;-53
2022/05/31 12:29:29;;;;;;;;;;;24.60;37.30;;;;;;1448868;80;1946;-54
2022/05/31 12:31:32;;;;;;;;;;;24.60;36.90;;;;;;1456244;81;1224;-55
2022/05/31 12:33:50;;;;;;;;;;;24.60;36.90;;;;;;1443559;81;713;-53
2022/05/31 12:35:51;;;;;;;;;;;24.60;35.80;;;;;;1455781;81;1225;-54
2022/05/31 12:37:54;;;;;;;;;;;24.50;36.60;;;;;;1457881;81;707;-58
2022/05/31 12:40:14;;;;;;;;;;;24.50;36.70;;;;;;1457836;81;1106;-55
2022/05/31 12:42:18;;;;;;;;;;;24.60;36.70;;;;;;1460370;81;1446;-57
2022/05/31 12:44:33;;;;;;;;;;;24.60;36.60;;;;;;1457245;81;992;-56
2022/05/31 12:46:36;;;;;;;;;;;24.50;36.70;;;;;;1461144;81;685;-56